Nearby METAR Reports


Data Updates Approximately Every Four (4) Hours

METAR is the international standard code format for hourly surface weather observations which is analogous to the SA coding currently used in the US. The acronym roughly translates from French as Aviation Routine Weather Report. SPECI is merely the code name given to METAR formatted products which are issued on a special non-routine basis as dictated by changing meteorological conditions. The SPECI acronym roughly translates as Aviation Selected Special Weather Report.
Source: NOAA-National Centers For Environmental Information.

KSLH - Cheboygan, Michigan, USA
Distance from LHW: W 9mi, 14km
Updated: 01/28/2023 5:55am
Overcast
Overcast
 Wind from W
Wind: W 9 mph , 15 km/h
Temperature: 21°F , -6°C
Wind Chill: 11°F , -12°C
Dew Point: 9°F , -13°C
Humidity: 58%
Barometer: 29.96 inHg , 1014.6 hPa
Clouds: Overcast
Visibility: 10 miles , 16 km
Cloud details: Overcast 4500 ft
2023/01/28 10:55 KSLH 281055Z AUTO 26008KT 10SM OVC045 M06/M13 A2996 RMK AO2
KMCD - Mackinac Island, Michigan, USA
Distance from LHW: NW 19mi, 31km
Updated: 01/28/2023 5:55am
Overcast
Overcast
 Wind from WNW
Wind: WNW 18 mph , 30 km/h, Gust: 30 mph , 48 km/h
Temperature: 21°F , -6°C
Wind Chill: 6°F , -14°C
Dew Point: 10°F , -12°C
Humidity: 63%
Barometer: 29.95 inHg , 1014.2 hPa
Clouds: Overcast
Visibility: 10 miles , 16 km
Cloud details: Mostly cloudy 3400 ft
Overcast 4700 ft
2023/01/28 10:55 KMCD 281055Z AUTO 29016G26KT 10SM BKN034 OVC047 M06/M12 A2995 RMK AO2 T10641118
 
KDRM - Drummond Is, Michigan, USA
Distance from LHW: NE 36mi, 59km
Updated: 01/28/2023 5:55am
Partly cloudy
Partly cloudy
 Wind from W
Wind: W 5 mph , 7 km/h
Temperature: 19°F , -7°C
Wind Chill: 12°F , -11°C
Dew Point: 10°F , -12°C
Humidity: 68%
Barometer: 29.92 inHg , 1013.2 hPa
Clouds: Partly cloudy
Visibility: 10 miles , 16 km
Cloud details: Partly cloudy 2300 ft
Partly cloudy 3700 ft
2023/01/28 10:55 KDRM 281055Z AUTO 28004KT 10SM SCT023 SCT037 M07/M12 A2992 RMK AO2 T10681116
KPZQ - Rogers City, Michigan, USA
Distance from LHW: SE 31mi, 50km
Updated: 01/28/2023 5:55am
Overcast
Overcast
 Wind from W
Wind: W 9 mph , 15 km/h, Gust: 17 mph , 28 km/h
Temperature: 21°F , -6°C
Wind Chill: 11°F , -12°C
Dew Point: 12°F , -11°C
Humidity: 68%
Barometer: 29.97 inHg , 1014.9 hPa
Clouds: Overcast
Visibility: 10 miles , 16 km
Cloud details: Overcast 4400 ft
2023/01/28 10:55 KPZQ 281055Z AUTO 27008G15KT 10SM OVC044 M06/M11 A2997 RMK AO2 T10561112
 
CYAM - Sault Ste Marie, Ontario, Canada
Distance from LHW: N 56mi, 90km
Updated: 01/28/2023 6:00am
Light snow, Showers, Blowing, Snow, Overcast
Light snow, Showers, Blowing, Snow, Overcast
 Wind from NW
Wind: NW 26 mph , 43 km/h, Gust: 32 mph , 52 km/h
Temperature: 19°F , -7°C
Wind Chill: 1°F , -17°C
Dew Point: 12°F , -11°C
Humidity: 73%
Barometer: 29.92 inHg , 1013.2 hPa
Summary: Light snow, Showers, Blowing, Snow
Clouds: Overcast
Visibility: 6 miles , 10 km
Cloud details: Mostly cloudy 2400 ft
Overcast 3600 ft
2023/01/28 11:00 CYAM 281100Z 31023G28KT 6SM -SHSN BLSN BKN024 OVC036 M07/M11 A2992 RMK CU5SC3 SLP145
KANJ - Sault Ste Marie, Michigan, USA
Distance from LHW: N 56mi, 89km
Updated: 01/28/2023 6:06am
Light snow, Overcast
Light snow, Overcast
 Wind from NW
Wind: NW 20 mph , 31 km/h, Gust: 32 mph , 52 km/h
Temperature: 19°F , -7°C
Wind Chill: 3°F , -16°C
Dew Point: 12°F , -11°C
Humidity: 73%
Barometer: 29.94 inHg , 1013.9 hPa
Summary: Light Snow
Clouds: Overcast
Visibility: 2 1/2 miles , 4 km
Cloud details: Overcast 3700 ft
2023/01/28 11:06 KANJ 281106Z AUTO 31017G28KT 2 1/2SM -SN OVC037 M07/M11 A2994 RMK AO2 PK WND 28028/1059 VIS 1 1/2V5 P0000 T10671111
 
KGLR - Gaylord, Michigan, USA
Distance from LHW: SSW 48mi, 77km
Updated: 01/28/2023 5:53am
Light snow, Overcast
Light snow, Overcast
 Wind from W
Wind: W 15 mph , 24 km/h, Gust: 23 mph , 37 km/h
Temperature: 21°F , -6°C
Wind Chill: 7°F , -14°C
Dew Point: 10°F , -12°C
Humidity: 63%
Barometer: 29.94 inHg , 1013.9 hPa
Summary: Light Snow
Clouds: Overcast
Visibility: 9 miles , 14 km
Cloud details: Overcast 3300 ft
2023/01/28 10:53 KGLR 281053Z AUTO 26013G20KT 9SM -SN OVC033 M06/M12 A2994 RMK AO2 SNB37 SLP157 P0000 T10611122
KPLN - Pellston, Michigan, USA
Distance from LHW: WSW 24mi, 38km
Updated: 01/28/2023 5:54am
Overcast
Overcast
 Wind from WNW
Wind: WNW 15 mph , 24 km/h, Gust: 22 mph , 35 km/h
Temperature: 21°F , -6°C
Wind Chill: 7°F , -14°C
Dew Point: 10°F , -12°C
Humidity: 63%
Barometer: 29.97 inHg , 1014.9 hPa
Clouds: Overcast
Visibility: 10 miles , 16 km
Cloud details: Overcast 4000 ft
2023/01/28 10:54 KPLN 281054Z AUTO 30013G19KT 10SM OVC040 M06/M12 A2997 RMK AO2 SLP159 T10561117 $